LGTS/SKG METAR and TAF weather

Enter ICAO airport designator
Station Type Date Time Source
LGTS METAR 2023/02/05 14:50 UTC NOAA

LGTS 051450Z 33018G28KT 9999 FEW040 03/M05 Q1020 NOSIG


Station Type Date Time Source
LGTS Decoded METAR 2023/02/05 14:50 UTC NOAA

Thessaloniki Airport , Greece (LGTS) 40-31N 022-58E 4M
Feb 05, 2023 - 09:50 AM EST / 2023.02.05 1450 UTC
Wind: from the NNW (330 degrees) at 21 MPH (18 KT) gusting to 32 MPH (28 KT):0
Visibility: greater than 7 mile(s):0
Sky conditions: mostly clear
Temperature: 37 F (3 C)
Dew Point: 23 F (-5 C)
Relative Humidity: 55%
Pressure (altimeter): 30.12 in. Hg (1020 hPa)
ob: LGTS 051450Z 33018G28KT 9999 FEW040 03/M05 Q1020 NOSIG
cycle: 15

Station Type Date Time Source
LGTS TAF 2023/02/05 12:16 UTC NOAA

TAF LGTS 051100Z 0512/0612 34020G35KT 9999 FEW020 SCT030
BECMG 0604/0606 FEW030
BECMG 0610/0612 34015G25KT

Example: see airport list